UPSVAC Airport Information Service

South Bend Airport

ICAO: KSBN Country: United States
Latitude: 41.7082 Longitude: -86.3173
Latest Arrival : UPSJUMP (KSDF-KSBN) Latest Departure : UPS4180 (KSBN-KSDF)


WX CaptureLIVE
Data provided by noaa.gov | Fetched at 13:19:55

METAR : KSBN 251254Z 04004KT 10SM OVC025 M01/M05 A3008 RMK AO2 SLP195 T10061050

TAF : KSBN 251120Z 2512/2612 06005KT P6SM BKN020 FM251600 07010KT P6SM SCT020 BKN050 FM252100 07013KT P6SM OVC020 FM260200 07016G26KT 2SM -SN BR OVC009 FM260600 07013G20KT 1SM -SN BR OVC006


Runway Data for KSBN
Data provided by openaviationdata.com

Runway ID Mag Var Hdg Length Elevation Surface ILS Freq ILS Id ILS Slope
09L -3 91° 4293 ft 799 ft Asphalt -- -- --
09R -3 91° 8399 ft 799 ft Asphalt 109.3 IUXW 3
18 -3 181° 6004 ft 799 ft Asphalt -- -- --
27L -3 271° 8399 ft 799 ft Asphalt 109.3 ISBN 3
27R -3 271° 4293 ft 799 ft Asphalt -- -- --
36 -3 6004 ft 799 ft Asphalt -- -- --

South Bend Airport, United States
Use only for reference purposes



Not for navigational purposes.